createdAt,value
2017-12-23T00:00:48.199Z,103147.91
2017-12-23T00:03:19.236Z,103141.66
2017-12-23T00:05:49.791Z,103144.70
2017-12-23T00:08:20.419Z,103140.59
2017-12-23T00:10:51.190Z,103135.69
2017-12-23T00:13:21.972Z,103139.20
2017-12-23T00:15:54.488Z,103124.71
2017-12-23T00:18:25.428Z,103120.95
2017-12-23T00:20:57.126Z,103119.50
2017-12-23T00:23:28.317Z,103124.45
2017-12-23T00:25:59.541Z,103116.54
2017-12-23T00:28:30.115Z,103127.75
2017-12-23T00:31:01.221Z,103127.78
2017-12-23T00:33:32.414Z,103126.84
2017-12-23T00:36:04.069Z,103119.58
2017-12-23T00:38:34.799Z,103126.02
2017-12-23T00:41:06.659Z,103123.28
2017-12-23T00:43:38.015Z,103127.83
2017-12-23T00:46:09.548Z,103128.16
2017-12-23T00:48:41.846Z,103125.92
2017-12-23T00:55:49.953Z,103107.36
2017-12-23T01:02:37.904Z,103089.56
2017-12-23T01:05:09.812Z,103096.34
2017-12-23T01:07:41.280Z,103089.09
2017-12-23T01:10:12.802Z,103084.84
2017-12-23T01:12:44.803Z,103084.47
2017-12-23T01:15:19.220Z,103081.98
2017-12-23T01:17:51.575Z,103084.16
2017-12-23T01:20:22.510Z,103074.05
2017-12-23T01:22:57.694Z,103085.41
2017-12-23T01:25:28.333Z,103088.70
2017-12-23T01:27:59.620Z,103085.28
2017-12-23T01:30:30.828Z,103088.99
2017-12-23T01:33:02.338Z,103074.50
2017-12-23T01:35:34.775Z,103076.85
2017-12-23T01:38:06.027Z,103070.74
2017-12-23T01:40:37.088Z,103075.18
2017-12-23T01:43:08.654Z,103074.78
2017-12-23T01:45:39.625Z,103077.48
2017-12-23T01:48:11.042Z,103073.60
2017-12-23T01:50:41.697Z,103075.73
2017-12-23T01:53:12.825Z,103078.91
2017-12-23T01:55:44.444Z,103069.58
2017-12-23T01:58:16.358Z,103065.05
2017-12-23T02:00:47.413Z,103053.34
2017-12-23T02:03:18.000Z,103049.98
2017-12-23T02:05:48.998Z,103036.84
2017-12-23T02:08:20.541Z,103035.05
2017-12-23T02:10:51.264Z,103029.76
2017-12-23T02:13:22.324Z,103042.02
2017-12-23T02:16:04.209Z,103038.14
2017-12-23T02:18:34.915Z,103036.63
2017-12-23T02:21:06.695Z,103031.48
2017-12-23T02:23:37.569Z,103023.16
2017-12-23T02:26:08.164Z,103026.00
2017-12-23T02:28:39.002Z,103026.22
2017-12-23T02:31:10.450Z,103023.73
2017-12-23T02:33:41.284Z,103012.30
2017-12-23T02:36:12.113Z,103020.66
2017-12-23T02:38:42.852Z,103024.25
2017-12-23T02:41:13.886Z,103014.56
2017-12-23T02:43:45.272Z,103014.52
2017-12-23T02:46:16.260Z,103011.62
2017-12-23T02:48:47.276Z,103008.15
2017-12-23T02:51:18.369Z,103007.54
2017-12-23T02:53:50.104Z,103012.00
2017-12-23T02:56:22.064Z,102999.80
2017-12-23T02:58:54.133Z,102994.59
2017-12-23T03:01:34.262Z,102986.37
2017-12-23T03:04:06.376Z,102982.04
2017-12-23T03:06:37.178Z,102985.66
2017-12-23T03:09:11.244Z,102985.27
2017-12-23T03:11:44.659Z,102988.06
2017-12-23T03:14:15.695Z,102985.60
2017-12-23T03:16:47.930Z,102976.41
2017-12-23T03:19:18.696Z,102985.86
2017-12-23T03:21:50.224Z,102992.13
2017-12-23T03:24:21.066Z,102989.73
2017-12-23T03:26:52.175Z,102984.27
2017-12-23T03:29:24.946Z,102984.81
2017-12-23T03:31:56.951Z,102985.51
2017-12-23T03:34:29.406Z,102987.23
2017-12-23T03:37:01.988Z,102996.46
2017-12-23T03:39:33.876Z,102998.69
2017-12-23T03:42:05.775Z,102993.42
2017-12-23T03:44:38.334Z,102989.32
2017-12-23T03:47:10.595Z,102988.31
2017-12-23T03:49:43.461Z,102995.75
2017-12-23T03:52:15.451Z,103000.05
2017-12-23T03:54:50.992Z,102987.29
2017-12-23T03:57:22.859Z,102988.09
2017-12-23T03:59:54.564Z,102984.92
2017-12-23T04:02:27.898Z,102977.55
2017-12-23T04:05:00.190Z,102976.48
2017-12-23T04:07:31.952Z,102982.22
2017-12-23T04:10:03.637Z,102998.03
2017-12-23T04:12:35.799Z,102991.92
2017-12-23T04:15:14.292Z,103006.34
2017-12-23T04:17:47.722Z,102994.54
2017-12-23T04:20:19.584Z,102995.72
2017-12-23T04:22:50.272Z,102996.14
2017-12-23T04:25:21.148Z,102997.56
2017-12-23T04:27:51.729Z,102994.13
2017-12-23T04:30:22.305Z,102995.38
2017-12-23T04:32:53.149Z,103003.39
2017-12-23T04:35:25.248Z,103002.40
2017-12-23T04:37:55.828Z,103003.79
2017-12-23T04:40:26.401Z,103005.35
2017-12-23T04:42:56.937Z,103007.64
2017-12-23T04:45:28.007Z,103015.70
2017-12-23T04:47:58.537Z,103002.77
2017-12-23T04:50:29.251Z,102999.72
2017-12-23T04:52:59.961Z,103003.55
2017-12-23T04:55:30.506Z,103002.16
2017-12-23T04:58:00.923Z,102996.91
2017-12-23T05:00:32.257Z,102996.92
2017-12-23T05:03:03.258Z,103010.69
2017-12-23T05:05:34.138Z,103005.67
2017-12-23T05:08:04.974Z,103000.84
2017-12-23T05:10:35.448Z,102996.86
2017-12-23T05:13:06.300Z,102992.82
2017-12-23T05:15:38.455Z,102995.19
2017-12-23T05:18:09.880Z,102993.04
2017-12-23T05:20:48.007Z,102992.82
2017-12-23T05:23:18.631Z,102985.69
2017-12-23T05:25:49.850Z,102986.20
2017-12-23T05:28:20.508Z,102988.81
2017-12-23T05:30:53.155Z,102992.34
2017-12-23T05:33:25.358Z,102990.70
2017-12-23T05:35:55.849Z,102982.57
2017-12-23T05:38:26.487Z,102985.34
2017-12-23T05:40:57.213Z,102982.94
2017-12-23T05:43:27.799Z,102982.97
2017-12-23T05:45:58.632Z,102973.56
2017-12-23T05:48:37.093Z,102971.16
2017-12-23T05:51:07.914Z,102971.09
2017-12-23T05:53:39.837Z,102973.28
2017-12-23T05:56:15.709Z,102959.78
2017-12-23T05:58:46.401Z,102957.62
2017-12-23T06:01:17.540Z,102964.64
2017-12-23T06:03:48.195Z,102954.80
2017-12-23T06:06:18.812Z,102946.77
2017-12-23T06:08:50.356Z,102953.94
2017-12-23T06:11:21.547Z,102948.28
2017-12-23T06:13:52.181Z,102950.22
2017-12-23T06:16:23.597Z,102933.23
2017-12-23T06:18:54.080Z,102952.28
2017-12-23T06:21:26.101Z,102952.44
2017-12-23T06:23:57.368Z,102943.25
2017-12-23T06:26:34.280Z,102948.87
2017-12-23T06:29:05.114Z,102948.94
2017-12-23T06:31:35.929Z,102945.37
2017-12-23T06:34:07.058Z,102943.53
2017-12-23T06:36:38.062Z,102943.70
2017-12-23T06:39:10.087Z,102941.80
2017-12-23T06:41:42.111Z,102939.39
2017-12-23T06:44:17.638Z,102930.50
2017-12-23T06:46:50.845Z,102915.16
2017-12-23T06:49:24.481Z,102929.73
2017-12-23T06:51:55.207Z,102926.09
2017-12-23T06:54:29.675Z,102917.42
2017-12-23T06:57:03.177Z,102914.78
2017-12-23T06:59:33.747Z,102911.34
2017-12-23T07:02:04.556Z,102909.66
2017-12-23T07:04:34.984Z,102903.92
2017-12-23T07:07:06.241Z,102899.85
2017-12-23T07:09:37.783Z,102905.51
2017-12-23T07:12:09.138Z,102899.40
2017-12-23T07:14:40.553Z,102905.41
2017-12-23T07:17:11.732Z,102896.89
2017-12-23T07:19:50.691Z,102926.98
2017-12-23T07:22:22.826Z,102917.86
2017-12-23T07:24:53.639Z,102925.90
2017-12-23T07:27:25.365Z,102922.91
2017-12-23T07:29:57.570Z,102925.73
2017-12-23T07:32:29.736Z,102929.16
2017-12-23T07:35:04.535Z,102932.11
2017-12-23T07:37:35.538Z,102929.61
2017-12-23T07:40:06.833Z,102936.84
2017-12-23T07:42:37.721Z,102935.73
2017-12-23T07:45:09.146Z,102937.37
2017-12-23T07:47:41.309Z,102925.08
2017-12-23T07:50:13.770Z,102936.19
2017-12-23T07:52:45.416Z,102935.67
2017-12-23T07:55:16.045Z,102938.57
2017-12-23T07:57:46.822Z,102939.63
2017-12-23T08:00:21.245Z,102931.83
2017-12-23T08:02:52.109Z,102929.00
2017-12-23T08:05:23.402Z,102942.52
2017-12-23T08:07:53.961Z,102939.49
2017-12-23T08:10:27.005Z,102939.11
2017-12-23T08:12:58.226Z,102938.83
2017-12-23T08:15:29.588Z,102931.45
2017-12-23T08:18:03.274Z,102928.45
2017-12-23T08:20:35.377Z,102936.66
2017-12-23T08:23:06.573Z,102934.81
2017-12-23T08:25:37.043Z,102944.91
2017-12-23T08:28:07.757Z,102945.05
2017-12-23T08:30:38.583Z,102947.91
2017-12-23T08:33:09.226Z,102956.45
2017-12-23T08:35:40.531Z,102947.78
2017-12-23T08:38:11.491Z,102951.28
2017-12-23T08:40:42.135Z,102950.16
2017-12-23T08:43:13.052Z,102951.16
2017-12-23T08:45:44.484Z,102955.41
2017-12-23T08:48:17.468Z,102960.09
2017-12-23T08:50:49.404Z,102948.33
2017-12-23T08:53:20.045Z,102948.92
2017-12-23T08:55:51.663Z,102952.17
2017-12-23T08:58:23.444Z,102953.17
2017-12-23T09:00:54.401Z,102952.64
2017-12-23T09:03:27.320Z,102950.59
2017-12-23T09:05:58.826Z,102958.32
2017-12-23T09:08:36.181Z,102950.45
2017-12-23T09:11:09.155Z,102927.87
2017-12-23T09:14:00.004Z,102949.95
2017-12-23T09:16:31.856Z,102947.37
2017-12-23T09:19:04.613Z,102946.44
2017-12-23T09:21:41.089Z,102942.72
2017-12-23T09:27:00.097Z,102947.16
2017-12-23T09:29:35.316Z,102947.53
2017-12-23T09:32:11.071Z,102950.07
2017-12-23T09:34:46.476Z,102949.81
2017-12-23T09:40:01.462Z,102960.22
2017-12-23T09:42:39.288Z,102944.39
2017-12-23T09:45:23.965Z,102953.31
2017-12-23T09:47:58.914Z,102950.50
2017-12-23T09:50:34.361Z,102946.49
2017-12-23T09:53:12.314Z,102943.95
2017-12-23T09:55:51.446Z,102953.20
2017-12-23T09:58:29.417Z,102945.83
2017-12-23T10:01:04.872Z,102943.35
2017-12-23T10:06:23.083Z,102938.72
2017-12-23T10:09:00.240Z,102937.03
2017-12-23T10:11:35.084Z,102934.64
2017-12-23T10:14:10.736Z,102925.69
2017-12-23T10:16:57.658Z,102918.12
2017-12-23T10:19:34.316Z,102920.08
2017-12-23T10:22:10.063Z,102918.86
2017-12-23T10:24:47.345Z,102914.73
2017-12-23T10:27:23.892Z,102916.55
2017-12-23T10:29:59.706Z,102922.39
2017-12-23T10:32:38.130Z,102913.72
2017-12-23T10:35:13.617Z,102909.13
2017-12-23T10:37:54.891Z,102911.33
2017-12-23T10:40:43.237Z,102903.39
2017-12-23T10:43:23.439Z,102901.52
2017-12-23T10:45:59.698Z,102895.67
2017-12-23T10:48:41.585Z,102877.88
2017-12-23T10:51:17.987Z,102889.19
2017-12-23T10:53:55.483Z,102888.79
2017-12-23T10:56:29.882Z,102892.47
2017-12-23T10:59:06.376Z,102882.83
2017-12-23T11:01:42.344Z,102892.29
2017-12-23T11:04:19.546Z,102888.17
2017-12-23T11:06:55.687Z,102875.81
2017-12-23T11:09:31.375Z,102878.98
2017-12-23T11:12:07.390Z,102876.63
2017-12-23T11:14:43.624Z,102869.45
2017-12-23T11:17:19.235Z,102864.04
2017-12-23T11:19:57.047Z,102872.55
2017-12-23T11:22:32.828Z,102858.55
2017-12-23T11:25:09.703Z,102866.23
2017-12-23T11:30:33.601Z,102862.78
2017-12-23T11:33:09.652Z,102856.27
2017-12-23T11:35:44.813Z,102842.85
2017-12-23T11:38:18.271Z,102848.84
2017-12-23T11:40:52.880Z,102836.06
2017-12-23T11:43:26.934Z,102844.11
2017-12-23T11:46:08.320Z,102842.78
2017-12-23T11:48:44.263Z,102840.73
2017-12-23T11:51:20.397Z,102839.98
2017-12-23T11:53:54.014Z,102827.59
2017-12-23T11:56:32.742Z,102819.67
2017-12-23T11:59:12.179Z,102827.52
2017-12-23T12:01:51.174Z,102806.64
2017-12-23T12:04:24.214Z,102828.81
2017-12-23T12:06:58.936Z,102827.28
2017-12-23T12:09:34.879Z,102827.00
2017-12-23T12:12:07.272Z,102830.11
2017-12-23T12:14:39.618Z,102827.98
2017-12-23T12:17:12.320Z,102827.87
2017-12-23T12:19:49.793Z,102824.54
2017-12-23T12:22:20.824Z,102816.22
2017-12-23T12:24:52.225Z,102812.56
2017-12-23T12:27:23.714Z,102800.45
2017-12-23T12:29:58.692Z,102810.64
2017-12-23T12:32:32.577Z,102819.16
2017-12-23T12:35:04.787Z,102815.23
2017-12-23T12:37:37.357Z,102825.03
2017-12-23T12:40:15.214Z,102818.41
2017-12-23T12:42:46.537Z,102811.75
2017-12-23T12:45:18.974Z,102803.38
2017-12-23T12:47:52.027Z,102817.93
2017-12-23T12:50:35.261Z,102812.52
2017-12-23T12:53:45.153Z,102821.56
2017-12-23T12:56:22.696Z,102822.08
2017-12-23T12:58:54.261Z,102811.51
2017-12-23T13:01:27.860Z,102814.14
2017-12-23T13:03:59.300Z,102806.52
2017-12-23T13:06:33.980Z,102811.23
2017-12-23T13:09:05.334Z,102810.95
2017-12-23T13:11:36.593Z,102813.94
2017-12-23T13:14:11.283Z,102806.37
2017-12-23T13:16:45.435Z,102806.52
2017-12-23T13:19:16.934Z,102804.92
2017-12-23T13:21:51.704Z,102805.31
2017-12-23T13:24:27.728Z,102797.20
2017-12-23T13:27:02.294Z,102804.33
2017-12-23T13:29:39.723Z,102803.06
2017-12-23T13:32:12.564Z,102801.61
2017-12-23T13:34:48.795Z,102799.90
2017-12-23T13:37:28.727Z,102796.61
2017-12-23T13:40:06.438Z,102793.03
2017-12-23T13:42:38.729Z,102785.71
2017-12-23T13:45:14.077Z,102776.34
2017-12-23T13:47:50.522Z,102765.74
2017-12-23T13:50:22.883Z,102772.59
2017-12-23T13:52:55.807Z,102768.13
2017-12-23T13:55:27.914Z,102764.58
2017-12-23T13:58:00.162Z,102763.64
2017-12-23T14:00:32.317Z,102772.77
2017-12-23T14:03:03.697Z,102763.08
2017-12-23T14:05:35.575Z,102757.94
2017-12-23T14:08:11.509Z,102759.13
2017-12-23T14:10:45.662Z,102769.67
2017-12-23T14:13:25.726Z,102740.39
2017-12-23T14:16:01.077Z,102769.00
2017-12-23T14:18:37.574Z,102765.55
2017-12-23T14:21:15.059Z,102761.58
2017-12-23T14:23:47.432Z,102754.13
2017-12-23T14:26:20.012Z,102754.99
2017-12-23T14:29:00.514Z,102757.11
2017-12-23T14:31:36.948Z,102757.62
2017-12-23T14:34:14.858Z,102750.74
2017-12-23T14:36:51.883Z,102750.98
2017-12-23T14:39:30.586Z,102748.14
2017-12-23T14:42:07.622Z,102763.43
2017-12-23T14:44:44.989Z,102750.83
2017-12-23T14:47:18.552Z,102756.94
2017-12-23T14:52:25.273Z,102736.09
2017-12-23T14:54:56.904Z,102744.54
2017-12-23T14:57:29.265Z,102732.61
2017-12-23T15:02:51.649Z,102736.34
2017-12-23T15:05:55.476Z,102732.12
2017-12-23T15:08:48.192Z,102727.27
2017-12-23T15:11:29.197Z,102709.20
2017-12-23T15:14:09.108Z,102730.88
2017-12-23T15:16:48.682Z,102732.63
2017-12-23T15:19:30.042Z,102733.23
2017-12-23T15:22:07.879Z,102728.13
2017-12-23T15:24:47.267Z,102730.47
2017-12-23T15:27:31.481Z,102713.59
2017-12-23T15:32:53.297Z,102724.28
2017-12-23T15:35:30.224Z,102720.77
2017-12-23T15:38:07.621Z,102727.02
2017-12-23T15:40:41.414Z,102713.22
2017-12-23T15:43:15.288Z,102712.49
2017-12-23T15:45:48.183Z,102715.55
2017-12-23T15:48:25.250Z,102717.58
2017-12-23T15:51:03.269Z,102708.16
2017-12-23T15:53:39.504Z,102707.98
2017-12-23T15:56:19.043Z,102700.49
2017-12-23T15:58:51.616Z,102708.11
2017-12-23T16:01:26.937Z,102696.08
2017-12-23T16:04:02.897Z,102697.44
2017-12-23T16:06:42.775Z,102697.13
2017-12-23T16:09:22.431Z,102710.66
2017-12-23T16:12:07.104Z,102708.83
2017-12-23T16:14:43.516Z,102706.98
2017-12-23T16:17:21.251Z,102694.02
2017-12-23T16:19:59.216Z,102710.61
2017-12-23T16:22:36.722Z,102696.12
2017-12-23T16:25:14.621Z,102707.51
2017-12-23T16:27:52.694Z,102709.25
2017-12-23T16:30:30.424Z,102706.97
2017-12-23T16:33:06.655Z,102708.48
2017-12-23T16:35:44.236Z,102704.00
2017-12-23T16:38:20.933Z,102704.39
2017-12-23T16:40:57.978Z,102705.03
2017-12-23T16:43:38.307Z,102709.65
2017-12-23T16:46:16.735Z,102705.77
2017-12-23T16:48:57.026Z,102706.76
2017-12-23T16:51:36.003Z,102709.69
2017-12-23T16:54:15.788Z,102706.62
2017-12-23T16:56:53.419Z,102707.80
2017-12-23T16:59:31.317Z,102695.17
2017-12-23T17:02:09.709Z,102694.58
2017-12-23T17:04:47.889Z,102690.78
2017-12-23T17:07:23.864Z,102690.00
2017-12-23T17:09:56.505Z,102689.66
2017-12-23T17:12:34.559Z,102687.84
2017-12-23T17:15:15.536Z,102683.28
2017-12-23T17:17:47.747Z,102689.94
2017-12-23T17:20:23.644Z,102687.39
2017-12-23T17:23:01.920Z,102682.02
2017-12-23T17:25:45.662Z,102688.58
2017-12-23T17:28:32.603Z,102678.06
2017-12-23T17:31:14.788Z,102677.58
2017-12-23T17:34:04.144Z,102686.05
2017-12-23T17:36:38.015Z,102677.94
2017-12-23T17:39:19.850Z,102688.27
2017-12-23T17:41:58.599Z,102676.12
2017-12-23T17:44:36.337Z,102679.73
2017-12-23T17:47:13.428Z,102678.37
2017-12-23T17:49:46.288Z,102680.45
2017-12-23T17:52:20.029Z,102679.05
2017-12-23T17:54:56.685Z,102684.00
2017-12-23T17:57:33.244Z,102683.20
2017-12-23T18:00:16.808Z,102677.12
2017-12-23T18:02:54.616Z,102670.95
2017-12-23T18:08:04.514Z,102666.35
2017-12-23T18:10:46.219Z,102675.52
2017-12-23T18:13:32.828Z,102668.04
2017-12-23T18:16:14.231Z,102671.86
2017-12-23T18:19:00.280Z,102673.89
2017-12-23T18:21:46.223Z,102671.95
2017-12-23T18:24:25.986Z,102679.83
2017-12-23T18:27:11.119Z,102681.51
2017-12-23T18:29:51.207Z,102680.09
2017-12-23T18:32:39.419Z,102670.58
2017-12-23T18:35:15.520Z,102677.68
2017-12-23T18:37:49.269Z,102670.10
2017-12-23T18:40:29.325Z,102673.45
2017-12-23T18:43:08.984Z,102668.42
2017-12-23T18:45:48.279Z,102675.61
2017-12-23T18:48:26.163Z,102672.43
2017-12-23T18:51:05.417Z,102676.12
2017-12-23T18:53:40.065Z,102671.67
2017-12-23T18:56:18.063Z,102676.39
2017-12-23T18:58:52.175Z,102668.16
2017-12-23T19:01:25.920Z,102657.18
2017-12-23T19:04:01.259Z,102666.96
2017-12-23T19:06:42.351Z,102662.52
2017-12-23T19:09:16.705Z,102661.75
2017-12-23T19:11:53.216Z,102643.87
2017-12-23T19:14:32.867Z,102664.24
2017-12-23T19:17:12.042Z,102666.14
2017-12-23T19:19:52.078Z,102653.86
2017-12-23T19:22:29.906Z,102651.28
2017-12-23T19:25:05.667Z,102651.58
2017-12-23T19:27:39.868Z,102656.50
2017-12-23T19:30:14.657Z,102658.22
2017-12-23T19:32:57.914Z,102658.91
2017-12-23T19:35:34.669Z,102647.75
2017-12-23T19:38:08.853Z,102649.30
2017-12-23T19:40:41.438Z,102650.89
2017-12-23T19:43:13.430Z,102651.50
2017-12-23T19:48:51.542Z,102642.37
2017-12-23T19:51:22.391Z,102634.79
2017-12-23T19:53:53.441Z,102633.84
2017-12-23T19:56:24.524Z,102630.66
2017-12-23T19:58:55.933Z,102627.11
2017-12-23T20:01:26.972Z,102621.05
2017-12-23T20:03:57.605Z,102628.41
2017-12-23T20:06:28.513Z,102628.76
2017-12-23T20:08:59.687Z,102626.73
2017-12-23T20:11:30.372Z,102625.36
2017-12-23T20:14:01.044Z,102625.91
2017-12-23T20:16:32.114Z,102630.73
2017-12-23T20:19:02.682Z,102630.31
2017-12-23T20:21:33.630Z,102641.03
2017-12-23T20:24:08.735Z,102636.24
2017-12-23T20:26:40.382Z,102629.78
2017-12-23T20:29:14.700Z,102619.54
2017-12-23T20:31:47.321Z,102610.80
2017-12-23T20:34:19.062Z,102617.73
2017-12-23T20:36:50.889Z,102620.48
2017-12-23T20:39:22.811Z,102603.30
2017-12-23T20:42:01.099Z,102612.09
2017-12-23T20:44:32.314Z,102605.38
2017-12-23T20:47:04.952Z,102597.75
2017-12-23T20:49:37.406Z,102594.70
2017-12-23T20:52:08.135Z,102595.90
2017-12-23T20:54:39.154Z,102595.30
2017-12-23T20:57:10.961Z,102599.22
2017-12-23T20:59:47.649Z,102594.66
2017-12-23T21:02:20.926Z,102599.48
2017-12-23T21:04:51.810Z,102602.70
2017-12-23T21:07:22.840Z,102615.02
2017-12-23T21:09:54.735Z,102613.45
2017-12-23T21:12:42.774Z,102609.40
2017-12-23T21:15:16.956Z,102593.25
2017-12-23T21:17:50.177Z,102599.33
2017-12-23T21:20:21.504Z,102595.63
2017-12-23T21:22:52.381Z,102603.58
2017-12-23T21:25:25.392Z,102604.45
2017-12-23T21:27:57.566Z,102607.92
2017-12-23T21:30:29.433Z,102604.81
2017-12-23T21:33:00.458Z,102595.55
2017-12-23T21:35:31.820Z,102595.08
2017-12-23T21:38:03.552Z,102591.89
2017-12-23T21:40:34.100Z,102592.74
2017-12-23T21:43:05.747Z,102596.33
2017-12-23T21:45:38.075Z,102591.85
2017-12-23T21:48:12.663Z,102589.56
2017-12-23T21:50:44.787Z,102593.97
2017-12-23T21:53:16.584Z,102590.73
2017-12-23T21:55:49.353Z,102592.42
2017-12-23T21:58:20.197Z,102587.13
2017-12-23T22:00:51.886Z,102595.17
2017-12-23T22:03:23.703Z,102593.88
2017-12-23T22:05:54.689Z,102589.83
2017-12-23T22:08:25.124Z,102586.22
2017-12-23T22:11:00.318Z,102579.16
2017-12-23T22:13:30.656Z,102584.84
2017-12-23T22:16:02.667Z,102581.17
2017-12-23T22:18:37.471Z,102592.29
2017-12-23T22:21:08.528Z,102584.76
2017-12-23T22:23:40.998Z,102580.31
2017-12-23T22:26:19.057Z,102580.41
2017-12-23T22:28:50.077Z,102581.22
2017-12-23T22:31:22.370Z,102582.34
2017-12-23T22:33:57.086Z,102580.88
2017-12-23T22:36:29.989Z,102576.71
2017-12-23T22:39:01.193Z,102574.00
2017-12-23T22:41:37.744Z,102575.16
2017-12-23T22:44:09.617Z,102569.55
2017-12-23T22:47:08.020Z,102571.23
2017-12-23T22:49:38.312Z,102567.31
2017-12-23T22:52:10.875Z,102565.77
2017-12-23T22:54:42.692Z,102560.47
2017-12-23T22:57:13.340Z,102566.77
2017-12-23T22:59:44.050Z,102569.08
2017-12-23T23:02:15.019Z,102568.30
2017-12-23T23:04:45.450Z,102560.55
2017-12-23T23:07:16.265Z,102548.89
2017-12-23T23:09:47.490Z,102543.76
2017-12-23T23:12:19.393Z,102545.40
2017-12-23T23:14:50.320Z,102539.38
2017-12-23T23:17:21.411Z,102546.53
2017-12-23T23:19:51.873Z,102544.63
2017-12-23T23:22:24.898Z,102543.38
2017-12-23T23:24:56.269Z,102539.77
2017-12-23T23:27:26.533Z,102538.11
2017-12-23T23:29:59.254Z,102549.02
2017-12-23T23:32:30.396Z,102540.62
2017-12-23T23:35:00.786Z,102544.25
2017-12-23T23:37:31.446Z,102542.39
2017-12-23T23:40:02.142Z,102540.97
2017-12-23T23:42:35.784Z,102528.45
2017-12-23T23:47:50.475Z,102522.73
2017-12-23T23:50:22.541Z,102521.53
2017-12-23T23:55:34.932Z,102518.13
2017-12-23T23:58:07.886Z,102516.84
